Time;durP1;ratioP1;P1;durP2;ratioP2;P2;SDS_P1;SDS_P2;PMS_P1;PMS_P2;Temp;Humidity;BMP_temperature;BMP_pressure;BME280_temperature;BME280_humidity;BME280_pressure;Samples;Min_cycle;Max_cycle;Signal;HPM_P1;HPM_P2
2021/12/13 00:01:31;;;;;;;3.92;3.30;;;;;;;;;;8290218;28;20045;-64
2021/12/13 00:05:46;;;;;;;3.65;3.25;;;;;;;;;;8288276;28;20029;-64
2021/12/13 00:09:49;;;;;;;5.30;3.63;;;;;;;;;;8291426;28;20665;-64
2021/12/13 00:13:58;;;;;;;4.53;3.55;;;;;;;;;;8288845;28;20101;-64
2021/12/13 00:18:00;;;;;;;3.88;3.10;;;;;;;;;;8285847;28;20045;-64
2021/12/13 00:22:05;;;;;;;2.70;2.40;;;;;;;;;;8289908;28;21025;-64
2021/12/13 00:26:05;;;;;;;5.00;3.72;;;;;;;;;;8296115;28;20045;-64
2021/12/13 00:30:24;;;;;;;6.40;3.75;;;;;;;;;;8297224;28;20025;-65
2021/12/13 00:34:32;;;;;;;4.05;2.88;;;;;;;;;;8292977;28;20558;-64
2021/12/13 00:38:36;;;;;;;3.88;3.00;;;;;;;;;;8291269;28;20021;-64
2021/12/13 00:42:40;;;;;;;2.85;2.55;;;;;;;;;;8291229;28;20156;-65
2021/12/13 00:46:42;;;;;;;2.45;2.25;;;;;;;;;;8295131;28;20033;-64
2021/12/13 00:51:01;;;;;;;2.85;2.42;;;;;;;;;;8296616;28;20029;-65
2021/12/13 00:55:08;;;;;;;2.95;2.65;;;;;;;;;;8292397;28;20770;-64
2021/12/13 00:59:10;;;;;;;2.80;2.45;;;;;;;;;;8296458;28;20072;-64
2021/12/13 01:03:10;;;;;;;2.70;2.50;;;;;;;;;;8292283;28;20066;-64
2021/12/13 01:07:13;;;;;;;2.55;2.35;;;;;;;;;;8293822;28;20080;-64
2021/12/13 01:11:19;;;;;;;3.20;2.55;;;;;;;;;;8293907;28;20044;-64
2021/12/13 01:15:29;;;;;;;4.95;3.33;;;;;;;;;;8292545;28;20026;-64
2021/12/13 01:19:50;;;;;;;3.97;3.47;;;;;;;;;;8294728;28;20036;-64
2021/12/13 01:23:52;;;;;;;4.20;3.47;;;;;;;;;;8292401;28;20754;-64
2021/12/13 01:27:55;;;;;;;4.68;3.90;;;;;;;;;;8297422;28;20036;-64
2021/12/13 01:32:01;;;;;;;5.20;4.32;;;;;;;;;;8290748;28;20098;-64
2021/12/13 01:36:04;;;;;;;5.90;4.45;;;;;;;;;;8291460;28;20171;-64
2021/12/13 01:40:07;;;;;;;5.00;4.10;;;;;;;;;;8292241;28;20025;-64
2021/12/13 01:44:10;;;;;;;4.75;3.83;;;;;;;;;;8288477;28;20029;-64
2021/12/13 01:48:18;;;;;;;5.18;3.92;;;;;;;;;;8292059;28;20111;-64
2021/12/13 01:52:21;;;;;;;5.15;4.00;;;;;;;;;;8293293;28;20013;-64
2021/12/13 02:04:55;;;;;;;4.32;3.67;;;;;;;;;;8292014;28;20452;-65
2021/12/13 02:08:57;;;;;;;5.03;3.67;;;;;;;;;;8290205;28;20025;-65
2021/12/13 02:13:02;;;;;;;6.13;3.88;;;;;;;;;;8288871;28;20800;-64
2021/12/13 02:21:32;;;;;;;4.63;3.53;;;;;;;;;;8292317;28;20454;-64
2021/12/13 02:25:44;;;;;;;5.20;3.85;;;;;;;;;;8282223;28;20819;-64
2021/12/13 02:29:46;;;;;;;5.05;3.00;;;;;;;;;;8291512;28;20159;-64
2021/12/13 02:33:48;;;;;;;4.05;3.03;;;;;;;;;;8288933;28;20469;-64
2021/12/13 02:37:48;;;;;;;3.90;2.65;;;;;;;;;;8293811;28;20021;-64
2021/12/13 02:41:49;;;;;;;2.60;2.40;;;;;;;;;;8290898;28;20035;-64
2021/12/13 02:45:52;;;;;;;3.83;2.50;;;;;;;;;;8293213;28;20095;-64
2021/12/13 02:49:52;;;;;;;4.00;2.58;;;;;;;;;;8291622;28;21069;-64
2021/12/13 02:53:55;;;;;;;2.60;2.33;;;;;;;;;;8288685;28;20062;-64
2021/12/13 02:57:58;;;;;;;2.70;2.08;;;;;;;;;;8290133;28;20040;-64
2021/12/13 03:02:01;;;;;;;2.53;2.10;;;;;;;;;;8286221;28;20038;-64
2021/12/13 03:06:03;;;;;;;2.05;1.80;;;;;;;;;;8287876;28;20040;-64
2021/12/13 03:10:10;;;;;;;1.65;1.55;;;;;;;;;;8287024;28;20040;-64
2021/12/13 03:14:13;;;;;;;2.08;1.85;;;;;;;;;;8290854;28;20824;-64
2021/12/13 03:18:28;;;;;;;2.55;1.95;;;;;;;;;;8288334;28;20065;-64
2021/12/13 03:22:29;;;;;;;;;;;;;;;;;;8287869;28;20039;-64
2021/12/13 03:26:48;;;;;;;1.40;1.30;;;;;;;;;;8290734;28;19913;-64
2021/12/13 03:30:54;;;;;;;1.42;1.33;;;;;;;;;;8292271;28;20049;-64
2021/12/13 03:35:05;;;;;;;2.33;1.50;;;;;;;;;;8289422;28;20033;-64
2021/12/13 03:39:07;;;;;;;2.13;1.70;;;;;;;;;;8287875;28;20078;-64
2021/12/13 03:43:10;;;;;;;1.88;1.73;;;;;;;;;;8285742;28;20239;-64
2021/12/13 03:47:12;;;;;;;2.40;1.75;;;;;;;;;;8288669;28;20446;-64
2021/12/13 03:51:15;;;;;;;2.00;1.77;;;;;;;;;;8289648;28;21029;-64
2021/12/13 03:55:16;;;;;;;3.78;2.00;;;;;;;;;;8288067;28;20616;-64
2021/12/13 03:59:19;;;;;;;2.13;1.60;;;;;;;;;;8290501;28;20041;-64
2021/12/13 04:03:21;;;;;;;2.42;1.90;;;;;;;;;;8290100;28;20534;-64
2021/12/13 04:07:23;;;;;;;2.00;1.80;;;;;;;;;;8294826;28;20024;-64
2021/12/13 04:11:24;;;;;;;1.83;1.73;;;;;;;;;;8297166;28;20474;-64
2021/12/13 04:15:33;;;;;;;1.90;1.80;;;;;;;;;;8294725;28;20053;-64
2021/12/13 04:19:45;;;;;;;1.63;1.52;;;;;;;;;;8294198;28;20025;-64
2021/12/13 04:23:50;;;;;;;2.58;1.73;;;;;;;;;;8293869;28;20531;-64
2021/12/13 04:28:02;;;;;;;2.33;1.88;;;;;;;;;;8296272;28;20029;-64
2021/12/13 04:32:25;;;;;;;1.70;1.45;;;;;;;;;;8292723;28;20043;-64
2021/12/13 04:36:37;;;;;;;3.78;2.40;;;;;;;;;;8287454;28;20037;-64
2021/12/13 04:40:39;;;;;;;3.15;2.05;;;;;;;;;;8292607;28;20033;-64
2021/12/13 04:44:50;;;;;;;3.45;2.70;;;;;;;;;;8296066;28;20034;-64
2021/12/13 04:48:55;;;;;;;3.95;3.15;;;;;;;;;;8294803;28;20041;-64
2021/12/13 04:52:56;;;;;;;13.18;8.00;;;;;;;;;;8291631;28;20620;-64
2021/12/13 04:56:59;;;;;;;11.13;7.63;;;;;;;;;;8290114;28;20036;-64
2021/12/13 05:01:01;;;;;;;4.82;3.25;;;;;;;;;;8290346;28;20045;-64
2021/12/13 05:05:03;;;;;;;2.58;2.25;;;;;;;;;;8294449;28;20030;-64
2021/12/13 05:09:06;;;;;;;3.25;2.50;;;;;;;;;;8292535;28;20045;-64
2021/12/13 05:13:09;;;;;;;4.40;3.90;;;;;;;;;;8291075;28;20840;-64
2021/12/13 05:17:16;;;;;;;4.10;3.00;;;;;;;;;;8290026;28;20717;-64
2021/12/13 05:21:24;;;;;;;3.40;2.85;;;;;;;;;;8289766;28;20048;-64
2021/12/13 05:25:27;;;;;;;3.45;3.15;;;;;;;;;;8286639;28;20024;-64
2021/12/13 05:29:33;;;;;;;10.23;3.30;;;;;;;;;;8285518;28;20039;-64
2021/12/13 05:33:35;;;;;;;5.97;3.30;;;;;;;;;;8282844;28;20030;-64
2021/12/13 05:37:39;;;;;;;1.98;1.80;;;;;;;;;;8284287;28;20908;-64
2021/12/13 05:41:40;;;;;;;1.88;1.38;;;;;;;;;;8286999;28;20392;-64
2021/12/13 05:45:44;;;;;;;1.48;1.38;;;;;;;;;;8281705;28;20242;-64
2021/12/13 05:49:45;;;;;;;3.95;2.70;;;;;;;;;;8286547;28;20424;-64
2021/12/13 05:53:51;;;;;;;2.95;2.58;;;;;;;;;;8283366;28;20037;-64
2021/12/13 05:57:51;;;;;;;3.13;2.55;;;;;;;;;;8284057;28;20041;-64
2021/12/13 06:02:12;;;;;;;3.28;2.70;;;;;;;;;;8283453;28;20053;-64
2021/12/13 06:06:14;;;;;;;3.00;2.70;;;;;;;;;;8286065;28;20064;-64
2021/12/13 06:10:18;;;;;;;1.70;1.60;;;;;;;;;;8283978;28;20120;-64
2021/12/13 06:14:19;;;;;;;1.65;1.55;;;;;;;;;;8285781;28;20087;-64
2021/12/13 06:18:21;;;;;;;2.05;1.50;;;;;;;;;;8284529;28;20582;-64
2021/12/13 06:22:23;;;;;;;2.70;1.88;;;;;;;;;;8286248;28;20457;-64
2021/12/13 06:26:29;;;;;;;3.05;1.60;;;;;;;;;;8287045;28;20039;-64
2021/12/13 06:30:31;;;;;;;5.60;2.83;;;;;;;;;;8283167;28;20121;-64
2021/12/13 06:34:31;;;;;;;5.03;3.40;;;;;;;;;;8286783;28;20037;-64
2021/12/13 06:38:42;;;;;;;9.80;3.93;;;;;;;;;;8283936;28;20091;-64
2021/12/13 06:42:42;;;;;;;5.03;3.70;;;;;;;;;;8283417;28;20911;-64
2021/12/13 06:46:49;;;;;;;4.63;3.17;;;;;;;;;;8282533;28;20821;-64
2021/12/13 06:50:49;;;;;;;5.18;3.42;;;;;;;;;;8283906;28;20704;-64
2021/12/13 06:55:00;;;;;;;4.95;2.72;;;;;;;;;;8284482;28;20064;-64
2021/12/13 06:59:03;;;;;;;5.20;3.08;;;;;;;;;;8283705;28;20048;-64
2021/12/13 07:03:05;;;;;;;24.65;15.13;;;;;;;;;;8283666;28;20120;-64
2021/12/13 07:07:10;;;;;;;12.68;7.60;;;;;;;;;;8282561;28;20044;-64
2021/12/13 07:11:12;;;;;;;9.80;6.35;;;;;;;;;;8280524;28;20421;-64
2021/12/13 07:15:31;;;;;;;8.30;5.85;;;;;;;;;;8284792;28;20866;-65
2021/12/13 07:19:31;;;;;;;7.10;4.28;;;;;;;;;;8283857;28;20036;-64
2021/12/13 07:23:50;;;;;;;11.02;7.28;;;;;;;;;;8283546;28;20033;-64
2021/12/13 07:27:51;;;;;;;9.80;7.40;;;;;;;;;;8282570;28;20585;-64
2021/12/13 07:32:12;;;;;;;6.95;5.60;;;;;;;;;;8282280;28;20584;-64
2021/12/13 07:36:14;;;;;;;9.45;7.05;;;;;;;;;;8285111;28;20022;-64
2021/12/13 07:40:17;;;;;;;8.27;6.28;;;;;;;;;;8285054;28;20064;-64
2021/12/13 07:44:41;;;;;;;7.00;5.20;;;;;;;;;;8282290;28;20047;-64
2021/12/13 07:48:42;;;;;;;7.43;4.80;;;;;;;;;;8279807;28;20131;-64
2021/12/13 07:52:42;;;;;;;6.25;4.53;;;;;;;;;;8284992;28;20033;-64
2021/12/13 07:56:45;;;;;;;9.23;5.95;;;;;;;;;;8282743;28;20025;-64
2021/12/13 08:00:46;;;;;;;10.23;6.40;;;;;;;;;;8280640;28;21167;-65
2021/12/13 08:04:48;;;;;;;15.52;9.68;;;;;;;;;;8281641;28;20371;-64
2021/12/13 08:08:51;;;;;;;11.10;7.13;;;;;;;;;;8282571;28;20607;-64
2021/12/13 08:12:53;;;;;;;12.98;7.28;;;;;;;;;;8285141;28;20028;-64
2021/12/13 08:16:53;;;;;;;11.20;7.35;;;;;;;;;;8299158;28;20604;-64
2021/12/13 08:20:54;;;;;;;14.27;9.70;;;;;;;;;;8283303;28;20474;-64
2021/12/13 08:24:57;;;;;;;12.07;7.57;;;;;;;;;;8280672;28;20121;-64
2021/12/13 08:28:59;;;;;;;13.70;7.65;;;;;;;;;;8282575;28;20049;-64
2021/12/13 08:33:02;;;;;;;10.10;7.07;;;;;;;;;;8280747;28;20048;-64
2021/12/13 08:37:23;;;;;;;10.97;7.00;;;;;;;;;;8283658;28;20557;-64
2021/12/13 08:41:29;;;;;;;17.63;11.05;;;;;;;;;;8281712;28;20783;-64
2021/12/13 08:45:32;;;;;;;18.60;11.77;;;;;;;;;;8286469;28;20034;-64
2021/12/13 08:49:35;;;;;;;24.13;13.63;;;;;;;;;;8289562;28;20092;-65
2021/12/13 08:53:36;;;;;;;22.35;13.48;;;;;;;;;;8288162;28;20035;-65
2021/12/13 08:57:40;;;;;;;28.60;14.73;;;;;;;;;;8285092;28;20017;-65
2021/12/13 09:01:48;;;;;;;23.35;14.02;;;;;;;;;;8287062;28;20057;-64
2021/12/13 09:06:07;;;;;;;28.45;14.52;;;;;;;;;;8285720;28;20031;-64
2021/12/13 09:10:07;;;;;;;28.77;14.65;;;;;;;;;;8287935;28;20553;-64
2021/12/13 09:14:07;;;;;;;29.27;14.80;;;;;;;;;;8287779;28;20064;-64
2021/12/13 09:18:08;;;;;;;26.65;14.27;;;;;;;;;;8285718;28;20443;-64
2021/12/13 09:22:27;;;;;;;42.30;16.08;;;;;;;;;;8288315;28;20542;-64
2021/12/13 09:26:28;;;;;;;41.72;17.85;;;;;;;;;;8289218;28;20495;-65
2021/12/13 09:30:34;;;;;;;32.20;17.25;;;;;;;;;;8284984;28;20237;-64
2021/12/13 09:34:34;;;;;;;31.77;16.35;;;;;;;;;;8283858;28;20284;-65
2021/12/13 09:38:40;;;;;;;25.38;14.55;;;;;;;;;;8288706;28;20045;-64
2021/12/13 09:42:48;;;;;;;27.60;15.50;;;;;;;;;;8286436;28;20486;-64
2021/12/13 09:46:52;;;;;;;23.63;13.60;;;;;;;;;;8287673;28;20554;-64
2021/12/13 09:51:01;;;;;;;23.45;13.57;;;;;;;;;;8274580;28;20033;-65
2021/12/13 09:55:23;;;;;;;20.65;12.23;;;;;;;;;;8283054;28;20025;-64
2021/12/13 09:59:29;;;;;;;17.90;11.73;;;;;;;;;;8289496;28;20212;-64
2021/12/13 10:04:02;;;;;;;22.63;13.07;;;;;;;;;;8284505;28;20038;-64
2021/12/13 10:08:07;;;;;;;26.77;15.65;;;;;;;;;;8257977;28;20042;-64
2021/12/13 10:12:10;;;;;;;12.32;8.60;;;;;;;;;;8284881;28;20029;-64
2021/12/13 10:16:12;;;;;;;8.88;6.32;;;;;;;;;;8282033;28;20044;-64
2021/12/13 10:20:29;;;;;;;9.87;8.07;;;;;;;;;;8285375;28;20388;-65
2021/12/13 10:24:32;;;;;;;10.20;8.10;;;;;;;;;;8284959;28;20049;-65
2021/12/13 10:28:34;;;;;;;12.60;8.30;;;;;;;;;;8286465;28;20501;-65
2021/12/13 10:32:35;;;;;;;7.75;6.18;;;;;;;;;;8282010;28;20037;-65
2021/12/13 10:36:37;;;;;;;6.20;4.05;;;;;;;;;;8285372;28;20129;-65
2021/12/13 10:40:46;;;;;;;5.28;3.92;;;;;;;;;;8289703;28;20424;-65
2021/12/13 10:44:47;;;;;;;4.25;3.63;;;;;;;;;;8282663;28;20156;-65
2021/12/13 10:48:51;;;;;;;16.67;9.02;;;;;;;;;;8285079;28;20075;-65
2021/12/13 10:52:53;;;;;;;17.33;10.07;;;;;;;;;;8286262;28;20025;-65
2021/12/13 10:56:58;;;;;;;16.15;9.85;;;;;;;;;;8282877;28;20509;-65
2021/12/13 11:01:03;;;;;;;18.20;11.68;;;;;;;;;;8283895;28;20061;-65
2021/12/13 11:05:10;;;;;;;17.00;10.55;;;;;;;;;;8284548;28;20017;-65
2021/12/13 11:09:12;;;;;;;14.73;9.60;;;;;;;;;;8279812;28;20045;-65
2021/12/13 11:13:13;;;;;;;14.40;9.10;;;;;;;;;;8283796;28;20030;-65
2021/12/13 11:17:15;;;;;;;12.85;8.32;;;;;;;;;;8282299;28;20048;-65
2021/12/13 11:21:21;;;;;;;13.25;8.60;;;;;;;;;;8283299;28;20028;-65
2021/12/13 11:25:24;;;;;;;13.55;8.55;;;;;;;;;;8279991;28;20030;-65
2021/12/13 11:29:28;;;;;;;10.98;8.07;;;;;;;;;;8272044;28;20025;-65
2021/12/13 11:33:38;;;;;;;18.10;8.82;;;;;;;;;;8268878;28;20034;-65
2021/12/13 11:37:57;;;;;;;13.77;8.50;;;;;;;;;;8282678;28;20537;-65
2021/12/13 11:42:16;;;;;;;12.48;7.88;;;;;;;;;;8280208;28;20597;-65
2021/12/13 11:46:26;;;;;;;12.38;8.35;;;;;;;;;;8282859;28;20096;-65
2021/12/13 11:50:45;;;;;;;11.65;8.30;;;;;;;;;;8285169;28;20694;-65
2021/12/13 11:54:45;;;;;;;12.77;8.52;;;;;;;;;;8283631;28;20044;-65
2021/12/13 11:59:01;;;;;;;12.18;7.78;;;;;;;;;;8282801;28;20117;-65
2021/12/13 12:03:33;;;;;;;13.73;9.20;;;;;;;;;;8281805;28;20057;-65
2021/12/13 12:07:43;;;;;;;13.02;8.45;;;;;;;;;;8281312;28;20057;-65
2021/12/13 12:12:04;;;;;;;11.75;7.35;;;;;;;;;;8281536;28;20333;-65
2021/12/13 12:16:05;;;;;;;9.90;6.60;;;;;;;;;;8282020;28;20538;-65
2021/12/13 12:20:07;;;;;;;8.23;5.22;;;;;;;;;;8286097;28;20478;-65
2021/12/13 12:24:10;;;;;;;7.80;5.68;;;;;;;;;;8276062;28;20168;-65
2021/12/13 12:28:14;;;;;;;4.95;3.70;;;;;;;;;;8287381;28;20039;-65
2021/12/13 12:32:24;;;;;;;4.05;3.30;;;;;;;;;;8286595;28;20410;-65
2021/12/13 12:36:39;;;;;;;2.67;2.42;;;;;;;;;;8288511;28;20448;-65
2021/12/13 12:40:48;;;;;;;2.95;2.65;;;;;;;;;;8276575;28;20052;-65
2021/12/13 12:44:55;;;;;;;3.22;2.50;;;;;;;;;;8288180;28;20103;-66
2021/12/13 12:48:57;;;;;;;6.78;3.03;;;;;;;;;;8286194;28;20701;-66
2021/12/13 12:53:00;;;;;;;3.40;2.70;;;;;;;;;;8289577;28;20541;-65
2021/12/13 12:57:01;;;;;;;2.80;2.50;;;;;;;;;;8287240;28;20021;-65
2021/12/13 13:01:06;;;;;;;2.60;2.40;;;;;;;;;;8287646;28;20268;-65
2021/12/13 13:05:08;;;;;;;2.38;2.17;;;;;;;;;;8282156;28;20347;-65
2021/12/13 13:09:09;;;;;;;8.50;5.45;;;;;;;;;;8289626;28;20028;-65
2021/12/13 13:13:11;;;;;;;3.58;2.80;;;;;;;;;;8290134;28;20023;-65
2021/12/13 13:17:11;;;;;;;5.45;4.18;;;;;;;;;;8286488;28;20558;-65
2021/12/13 13:21:12;;;;;;;5.03;4.50;;;;;;;;;;8287801;28;20621;-65
2021/12/13 13:25:15;;;;;;;5.72;4.32;;;;;;;;;;8285659;28;20865;-65
2021/12/13 13:29:17;;;;;;;4.60;3.70;;;;;;;;;;8286315;28;20030;-65
2021/12/13 13:33:28;;;;;;;7.78;4.70;;;;;;;;;;8283921;28;20037;-65
2021/12/13 13:37:30;;;;;;;5.22;4.22;;;;;;;;;;8289457;28;20052;-65
2021/12/13 13:41:34;;;;;;;5.32;4.45;;;;;;;;;;8285605;28;20038;-65
2021/12/13 13:45:34;;;;;;;;;;;;;;;;;;8285552;28;20033;-65
2021/12/13 13:49:34;;;;;;;4.90;4.30;;;;;;;;;;8286031;28;20364;-65
2021/12/13 13:53:38;;;;;;;8.50;4.90;;;;;;;;;;8286238;28;20022;-65
2021/12/13 13:57:38;;;;;;;9.57;6.20;;;;;;;;;;8284530;28;20076;-65
2021/12/13 14:01:48;;;;;;;9.25;5.38;;;;;;;;;;8287945;28;20046;-65
2021/12/13 14:05:52;;;;;;;6.20;5.00;;;;;;;;;;8284281;28;20553;-65
2021/12/13 14:09:54;;;;;;;5.70;3.97;;;;;;;;;;8300109;28;20427;-65
2021/12/13 14:13:57;;;;;;;4.97;4.03;;;;;;;;;;8284229;28;20025;-65
2021/12/13 14:18:07;;;;;;;7.10;3.92;;;;;;;;;;8284556;28;20286;-65
2021/12/13 14:22:08;;;;;;;6.95;5.25;;;;;;;;;;8285279;28;20024;-65
2021/12/13 14:26:08;;;;;;;8.40;5.53;;;;;;;;;;8284441;28;20037;-65
2021/12/13 14:30:12;;;;;;;7.93;5.50;;;;;;;;;;8283367;28;20021;-65
2021/12/13 14:34:14;;;;;;;9.57;6.50;;;;;;;;;;8286173;28;20654;-65
2021/12/13 14:38:16;;;;;;;7.25;5.30;;;;;;;;;;8286101;28;20034;-65
2021/12/13 14:42:16;;;;;;;6.80;4.80;;;;;;;;;;8284289;28;20472;-65
2021/12/13 14:46:18;;;;;;;6.18;4.85;;;;;;;;;;8288458;28;20036;-65
2021/12/13 14:50:21;;;;;;;9.32;5.35;;;;;;;;;;8281295;28;20612;-65
2021/12/13 14:54:26;;;;;;;11.32;8.73;;;;;;;;;;8287224;28;20553;-65
2021/12/13 14:58:37;;;;;;;10.07;7.00;;;;;;;;;;8285604;28;20041;-65
2021/12/13 15:02:49;;;;;;;9.00;6.72;;;;;;;;;;8264981;28;20040;-65
2021/12/13 15:06:51;;;;;;;10.93;7.18;;;;;;;;;;8282472;28;20037;-65
2021/12/13 15:11:04;;;;;;;11.20;6.88;;;;;;;;;;8283254;28;20491;-65
2021/12/13 15:15:06;;;;;;;9.07;6.65;;;;;;;;;;8285186;28;20441;-65
2021/12/13 15:19:14;;;;;;;8.48;6.22;;;;;;;;;;8282879;28;20013;-65
2021/12/13 15:23:19;;;;;;;9.40;7.40;;;;;;;;;;8285502;28;20427;-65
2021/12/13 15:27:21;;;;;;;8.95;6.65;;;;;;;;;;8282388;28;20021;-65
2021/12/13 15:31:31;;;;;;;9.70;5.65;;;;;;;;;;8283138;28;20037;-65
2021/12/13 15:35:34;;;;;;;9.65;6.07;;;;;;;;;;8272528;28;20052;-65
2021/12/13 15:39:34;;;;;;;8.23;5.75;;;;;;;;;;8283695;28;20063;-65
2021/12/13 15:43:37;;;;;;;6.95;5.75;;;;;;;;;;8283473;28;20021;-65
2021/12/13 15:51:56;;;;;;;8.35;6.97;;;;;;;;;;8273709;28;20066;-65
2021/12/13 15:55:59;;;;;;;9.98;7.85;;;;;;;;;;8287903;28;20021;-66
2021/12/13 16:00:02;;;;;;;11.52;8.40;;;;;;;;;;8288983;28;20048;-65
2021/12/13 16:04:08;;;;;;;23.47;15.10;;;;;;;;;;8285998;28;20546;-65
2021/12/13 16:08:08;;;;;;;39.53;20.65;;;;;;;;;;8290968;28;20025;-65
2021/12/13 16:12:10;;;;;;;37.70;22.67;;;;;;;;;;8288605;28;20032;-65
2021/12/13 16:16:19;;;;;;;31.38;20.42;;;;;;;;;;8288057;28;20040;-65
2021/12/13 16:20:26;;;;;;;30.55;18.50;;;;;;;;;;8288725;28;20018;-65
2021/12/13 16:24:27;;;;;;;18.67;12.32;;;;;;;;;;8285726;28;20096;-65
2021/12/13 16:28:31;;;;;;;21.15;13.48;;;;;;;;;;8289813;28;20030;-65
2021/12/13 16:32:32;;;;;;;30.52;17.25;;;;;;;;;;8290347;28;20030;-65
2021/12/13 16:36:35;;;;;;;31.42;20.70;;;;;;;;;;8286726;28;20517;-65
2021/12/13 16:40:37;;;;;;;65.65;34.60;;;;;;;;;;8280480;28;20303;-65
2021/12/13 16:44:40;;;;;;;36.33;19.13;;;;;;;;;;8289829;28;20379;-65
2021/12/13 16:48:45;;;;;;;24.05;14.13;;;;;;;;;;8285150;28;20041;-65
2021/12/13 16:52:51;;;;;;;26.17;14.48;;;;;;;;;;8289536;28;20460;-65
2021/12/13 16:56:52;;;;;;;20.60;12.07;;;;;;;;;;8288267;28;20401;-65
2021/12/13 17:00:54;;;;;;;19.05;11.82;;;;;;;;;;8282751;28;20034;-65
2021/12/13 17:04:58;;;;;;;23.80;14.20;;;;;;;;;;8290167;28;20250;-65
2021/12/13 17:09:01;;;;;;;17.83;11.70;;;;;;;;;;8286335;28;20688;-65
2021/12/13 17:13:08;;;;;;;16.95;10.27;;;;;;;;;;8288535;28;20021;-65
2021/12/13 17:17:08;;;;;;;15.15;10.55;;;;;;;;;;8286691;28;20083;-65
2021/12/13 17:21:20;;;;;;;14.50;10.63;;;;;;;;;;8289158;28;20040;-66
2021/12/13 17:25:23;;;;;;;16.92;10.93;;;;;;;;;;8289405;28;20218;-65
2021/12/13 17:29:42;;;;;;;14.32;9.82;;;;;;;;;;8287015;28;20491;-65
2021/12/13 17:33:43;;;;;;;11.90;7.53;;;;;;;;;;8283224;28;20439;-65
2021/12/13 17:37:55;;;;;;;10.95;7.63;;;;;;;;;;8287355;28;20026;-65
2021/12/13 17:41:57;;;;;;;11.60;7.07;;;;;;;;;;8285268;28;20033;-65
2021/12/13 17:45:58;;;;;;;16.23;9.90;;;;;;;;;;8288685;28;20064;-65
2021/12/13 17:49:58;;;;;;;19.67;14.88;;;;;;;;;;8284852;28;20525;-65
2021/12/13 17:54:04;;;;;;;21.80;16.23;;;;;;;;;;8284563;28;20117;-66
2021/12/13 17:58:13;;;;;;;22.25;15.60;;;;;;;;;;8285794;28;20029;-65
2021/12/13 18:02:13;;;;;;;16.73;13.43;;;;;;;;;;8284930;28;20046;-65
2021/12/13 18:06:17;;;;;;;28.00;19.98;;;;;;;;;;8284376;28;20025;-65
2021/12/13 18:10:28;;;;;;;25.23;15.60;;;;;;;;;;8289584;28;20030;-65
2021/12/13 18:14:40;;;;;;;19.00;12.90;;;;;;;;;;8286612;28;20496;-65
2021/12/13 18:18:45;;;;;;;28.15;16.52;;;;;;;;;;8280134;28;20040;-65
2021/12/13 18:22:52;;;;;;;19.83;14.88;;;;;;;;;;8286078;28;20029;-65
2021/12/13 18:27:00;;;;;;;20.70;15.10;;;;;;;;;;8281155;28;20033;-65
2021/12/13 18:31:06;;;;;;;18.02;13.45;;;;;;;;;;8283655;28;20045;-65
2021/12/13 18:35:29;;;;;;;18.05;12.50;;;;;;;;;;8285805;28;20029;-66
2021/12/13 18:39:40;;;;;;;12.45;8.82;;;;;;;;;;8285376;28;20414;-65
2021/12/13 18:43:59;;;;;;;12.30;8.63;;;;;;;;;;8284042;28;20029;-65
2021/12/13 18:48:20;;;;;;;11.75;8.52;;;;;;;;;;8282676;28;20037;-65
2021/12/13 18:52:23;;;;;;;12.27;8.02;;;;;;;;;;8286524;28;20029;-66
2021/12/13 18:56:23;;;;;;;14.13;9.48;;;;;;;;;;8285918;28;20056;-65
2021/12/13 19:00:34;;;;;;;14.18;8.65;;;;;;;;;;8285229;28;20056;-65
2021/12/13 19:04:36;;;;;;;11.57;8.40;;;;;;;;;;8282836;28;20468;-65
2021/12/13 19:08:39;;;;;;;14.15;9.20;;;;;;;;;;8285754;28;20029;-65
2021/12/13 19:12:44;;;;;;;13.80;9.48;;;;;;;;;;8282106;28;20518;-65
2021/12/13 19:16:50;;;;;;;14.10;9.98;;;;;;;;;;8282568;28;20449;-65
2021/12/13 19:21:03;;;;;;;15.30;9.88;;;;;;;;;;8280626;28;20029;-65
2021/12/13 19:25:08;;;;;;;15.70;11.73;;;;;;;;;;8283586;28;20024;-65
2021/12/13 19:29:12;;;;;;;15.90;10.20;;;;;;;;;;8283935;28;20038;-65
2021/12/13 19:33:15;;;;;;;15.57;11.13;;;;;;;;;;8283167;28;20097;-65
2021/12/13 19:37:19;;;;;;;12.63;9.00;;;;;;;;;;8283596;28;20265;-65
2021/12/13 19:41:23;;;;;;;9.55;6.88;;;;;;;;;;8283134;28;20063;-65
2021/12/13 19:45:34;;;;;;;9.50;6.47;;;;;;;;;;8281547;28;20030;-66
2021/12/13 19:49:43;;;;;;;8.90;7.20;;;;;;;;;;8285080;28;20041;-65
2021/12/13 19:53:52;;;;;;;11.45;8.15;;;;;;;;;;8282162;28;20410;-66
2021/12/13 19:57:57;;;;;;;11.10;7.75;;;;;;;;;;8284058;28;20036;-65
2021/12/13 20:02:00;;;;;;;7.88;6.10;;;;;;;;;;8281959;28;20135;-65
2021/12/13 20:06:05;;;;;;;6.47;5.40;;;;;;;;;;8281498;28;20917;-65
2021/12/13 20:10:15;;;;;;;6.78;4.90;;;;;;;;;;8285976;28;20024;-65
2021/12/13 20:14:21;;;;;;;6.15;4.28;;;;;;;;;;8280019;28;20025;-65
2021/12/13 20:18:26;;;;;;;3.97;3.10;;;;;;;;;;8283625;28;20046;-65
2021/12/13 20:22:29;;;;;;;3.67;3.08;;;;;;;;;;8281417;28;20521;-65
2021/12/13 20:26:37;;;;;;;4.95;4.45;;;;;;;;;;8279842;28;20532;-65
2021/12/13 20:30:37;;;;;;;7.78;4.60;;;;;;;;;;8280909;28;20405;-65
2021/12/13 20:34:48;;;;;;;6.72;5.05;;;;;;;;;;8281947;28;20238;-65
2021/12/13 20:38:52;;;;;;;6.15;4.95;;;;;;;;;;8280821;28;20037;-65
2021/12/13 20:42:52;;;;;;;6.63;5.70;;;;;;;;;;8288671;28;20026;-65
2021/12/13 20:47:00;;;;;;;7.97;6.28;;;;;;;;;;8290593;28;20064;-65
2021/12/13 20:51:12;;;;;;;11.13;6.60;;;;;;;;;;8290017;28;20467;-65
2021/12/13 20:55:17;;;;;;;11.57;7.50;;;;;;;;;;8285581;28;20026;-65
2021/12/13 20:59:20;;;;;;;9.50;6.93;;;;;;;;;;8290653;28;20033;-65
2021/12/13 21:03:27;;;;;;;7.90;7.00;;;;;;;;;;8286126;28;20481;-65
2021/12/13 21:07:33;;;;;;;9.85;7.55;;;;;;;;;;8289416;28;20026;-65
2021/12/13 21:11:36;;;;;;;10.88;8.15;;;;;;;;;;8286011;28;20036;-66
2021/12/13 21:15:39;;;;;;;11.93;8.02;;;;;;;;;;8286941;28;20037;-65
2021/12/13 21:19:46;;;;;;;10.63;7.95;;;;;;;;;;8286049;28;21656;-65
2021/12/13 21:23:53;;;;;;;10.68;8.30;;;;;;;;;;8286782;28;20147;-65
2021/12/13 21:28:14;;;;;;;11.15;8.27;;;;;;;;;;8287097;28;20041;-65
2021/12/13 21:32:17;;;;;;;12.77;8.80;;;;;;;;;;8286366;28;20052;-65
2021/12/13 21:36:21;;;;;;;9.70;7.72;;;;;;;;;;8285608;28;20037;-66
2021/12/13 21:40:24;;;;;;;14.02;8.52;;;;;;;;;;8287385;28;20032;-65
2021/12/13 21:44:27;;;;;;;11.40;8.63;;;;;;;;;;8284314;28;20568;-65
2021/12/13 21:48:34;;;;;;;12.15;8.60;;;;;;;;;;8284929;28;20064;-65
2021/12/13 21:52:41;;;;;;;12.52;8.68;;;;;;;;;;8282152;28;20081;-65
2021/12/13 21:56:44;;;;;;;13.10;8.20;;;;;;;;;;8282784;28;20065;-65
2021/12/13 22:00:54;;;;;;;11.73;8.38;;;;;;;;;;8286787;28;20069;-65
2021/12/13 22:04:58;;;;;;;10.93;7.15;;;;;;;;;;8285290;28;20053;-65
2021/12/13 22:09:03;;;;;;;9.38;7.38;;;;;;;;;;8285154;28;20025;-65
2021/12/13 22:13:06;;;;;;;9.85;6.47;;;;;;;;;;8286361;28;20036;-65
2021/12/13 22:17:13;;;;;;;8.70;6.70;;;;;;;;;;8274360;28;20037;-67
2021/12/13 22:21:18;;;;;;;8.75;6.75;;;;;;;;;;8279715;28;20037;-65
2021/12/13 22:25:24;;;;;;;9.20;6.63;;;;;;;;;;8285273;28;20471;-65
2021/12/13 22:29:25;;;;;;;9.55;7.05;;;;;;;;;;8283441;28;20065;-65
2021/12/13 22:33:26;;;;;;;8.38;6.97;;;;;;;;;;8285102;28;20393;-65
2021/12/13 22:37:36;;;;;;;8.65;6.68;;;;;;;;;;8282883;28;20021;-65
2021/12/13 22:41:41;;;;;;;8.30;6.40;;;;;;;;;;8280975;28;20729;-65
2021/12/13 22:45:42;;;;;;;7.97;6.30;;;;;;;;;;8283985;28;20099;-65
2021/12/13 22:49:46;;;;;;;10.57;6.80;;;;;;;;;;8290647;28;20381;-65
2021/12/13 22:53:47;;;;;;;11.70;7.57;;;;;;;;;;8283682;28;20557;-66
2021/12/13 22:57:48;;;;;;;10.43;7.60;;;;;;;;;;8284243;28;20318;-65
2021/12/13 23:02:01;;;;;;;10.02;7.57;;;;;;;;;;8283150;28;20041;-65
2021/12/13 23:06:12;;;;;;;11.70;7.80;;;;;;;;;;8281322;28;20025;-65
2021/12/13 23:10:28;;;;;;;11.00;7.97;;;;;;;;;;8283470;28;20028;-65
2021/12/13 23:14:28;;;;;;;13.73;8.13;;;;;;;;;;8283097;28;20086;-65
2021/12/13 23:18:30;;;;;;;12.50;7.80;;;;;;;;;;8280590;28;20090;-65
2021/12/13 23:22:33;;;;;;;14.93;8.25;;;;;;;;;;8282586;28;20267;-65
2021/12/13 23:26:41;;;;;;;11.07;8.33;;;;;;;;;;8280377;28;20032;-65
2021/12/13 23:30:44;;;;;;;15.20;9.82;;;;;;;;;;8283331;28;20364;-65
2021/12/13 23:34:46;;;;;;;15.00;10.32;;;;;;;;;;8279544;28;20033;-65
2021/12/13 23:47:05;;;;;;;10.27;7.70;;;;;;;;;;8279711;28;20117;-65
2021/12/13 23:51:07;;;;;;;10.63;8.00;;;;;;;;;;8279700;28;20758;-65
2021/12/13 23:55:21;;;;;;;11.98;7.57;;;;;;;;;;8279071;28;20080;-65
2021/12/13 23:59:22;;;;;;;;;;;;;;;;;;8285647;28;20494;-65
